sensor_id;sensor_type;location;lat;lon;timestamp;P1;durP1;ratioP1;P2;durP2;ratioP2
17790;SDS011;9019;48.132;-1.210;2022-09-09T00:01:51;11.93;;;3.47;;
17790;SDS011;9019;48.132;-1.210;2022-09-09T00:04:24;12.50;;;3.37;;
17790;SDS011;9019;48.132;-1.210;2022-09-09T00:06:55;14.13;;;2.90;;
17790;SDS011;9019;48.132;-1.210;2022-09-09T00:09:27;12.13;;;3.10;;
17790;SDS011;9019;48.132;-1.210;2022-09-09T00:11:56;13.80;;;3.63;;
17790;SDS011;9019;48.132;-1.210;2022-09-09T00:14:32;13.53;;;3.50;;
17790;SDS011;9019;48.132;-1.210;2022-09-09T00:17:02;11.00;;;3.47;;
17790;SDS011;9019;48.132;-1.210;2022-09-09T00:19:33;13.50;;;3.17;;
17790;SDS011;9019;48.132;-1.210;2022-09-09T00:22:08;14.67;;;3.67;;
17790;SDS011;9019;48.132;-1.210;2022-09-09T00:24:41;14.03;;;3.50;;
17790;SDS011;9019;48.132;-1.210;2022-09-09T00:27:11;14.70;;;3.53;;
17790;SDS011;9019;48.132;-1.210;2022-09-09T00:29:43;18.87;;;3.60;;
17790;SDS011;9019;48.132;-1.210;2022-09-09T00:32:11;17.50;;;3.33;;
17790;SDS011;9019;48.132;-1.210;2022-09-09T00:34:41;14.87;;;3.53;;
17790;SDS011;9019;48.132;-1.210;2022-09-09T00:37:09;22.73;;;3.90;;
17790;SDS011;9019;48.132;-1.210;2022-09-09T00:39:37;15.67;;;3.47;;
17790;SDS011;9019;48.132;-1.210;2022-09-09T00:42:10;14.07;;;3.40;;
17790;SDS011;9019;48.132;-1.210;2022-09-09T00:44:42;17.70;;;3.53;;
17790;SDS011;9019;48.132;-1.210;2022-09-09T00:47:17;12.40;;;3.20;;
17790;SDS011;9019;48.132;-1.210;2022-09-09T00:49:54;16.63;;;4.00;;
17790;SDS011;9019;48.132;-1.210;2022-09-09T00:52:27;12.53;;;3.40;;
17790;SDS011;9019;48.132;-1.210;2022-09-09T00:55:02;18.20;;;4.00;;
17790;SDS011;9019;48.132;-1.210;2022-09-09T00:57:30;18.40;;;4.00;;
17790;SDS011;9019;48.132;-1.210;2022-09-09T01:02:42;17.87;;;4.37;;
17790;SDS011;9019;48.132;-1.210;2022-09-09T01:05:17;16.07;;;3.90;;
17790;SDS011;9019;48.132;-1.210;2022-09-09T01:07:47;12.93;;;3.97;;
17790;SDS011;9019;48.132;-1.210;2022-09-09T01:10:17;15.23;;;3.93;;
17790;SDS011;9019;48.132;-1.210;2022-09-09T01:12:50;18.50;;;4.50;;
17790;SDS011;9019;48.132;-1.210;2022-09-09T01:15:20;16.30;;;3.87;;
17790;SDS011;9019;48.132;-1.210;2022-09-09T01:17:51;14.50;;;4.10;;
17790;SDS011;9019;48.132;-1.210;2022-09-09T01:20:20;19.37;;;3.83;;
17790;SDS011;9019;48.132;-1.210;2022-09-09T01:22:55;15.67;;;3.97;;
17790;SDS011;9019;48.132;-1.210;2022-09-09T01:25:29;15.77;;;3.80;;
17790;SDS011;9019;48.132;-1.210;2022-09-09T01:27:58;14.70;;;3.87;;
17790;SDS011;9019;48.132;-1.210;2022-09-09T01:30:27;21.27;;;4.17;;
17790;SDS011;9019;48.132;-1.210;2022-09-09T01:32:55;19.23;;;4.40;;
17790;SDS011;9019;48.132;-1.210;2022-09-09T01:35:31;14.50;;;3.70;;
17790;SDS011;9019;48.132;-1.210;2022-09-09T01:38:00;14.90;;;3.90;;
17790;SDS011;9019;48.132;-1.210;2022-09-09T01:40:27;14.17;;;3.73;;
17790;SDS011;9019;48.132;-1.210;2022-09-09T01:42:55;15.43;;;4.40;;
17790;SDS011;9019;48.132;-1.210;2022-09-09T01:45:24;17.23;;;4.10;;
17790;SDS011;9019;48.132;-1.210;2022-09-09T01:47:51;19.13;;;4.23;;
17790;SDS011;9019;48.132;-1.210;2022-09-09T01:50:19;11.37;;;3.57;;
17790;SDS011;9019;48.132;-1.210;2022-09-09T01:52:49;16.87;;;3.80;;
17790;SDS011;9019;48.132;-1.210;2022-09-09T01:55:18;11.73;;;3.63;;
17790;SDS011;9019;48.132;-1.210;2022-09-09T01:57:49;13.87;;;3.30;;
17790;SDS011;9019;48.132;-1.210;2022-09-09T02:00:17;14.83;;;3.67;;
17790;SDS011;9019;48.132;-1.210;2022-09-09T02:02:48;14.33;;;3.10;;
17790;SDS011;9019;48.132;-1.210;2022-09-09T02:05:17;14.80;;;3.77;;
17790;SDS011;9019;48.132;-1.210;2022-09-09T02:07:49;15.50;;;3.20;;
17790;SDS011;9019;48.132;-1.210;2022-09-09T02:10:18;16.10;;;3.57;;
17790;SDS011;9019;48.132;-1.210;2022-09-09T02:12:47;16.03;;;3.27;;
17790;SDS011;9019;48.132;-1.210;2022-09-09T02:15:18;12.40;;;3.20;;
17790;SDS011;9019;48.132;-1.210;2022-09-09T02:17:48;11.63;;;3.20;;
17790;SDS011;9019;48.132;-1.210;2022-09-09T02:20:17;10.73;;;3.53;;
17790;SDS011;9019;48.132;-1.210;2022-09-09T02:22:45;9.17;;;3.00;;
17790;SDS011;9019;48.132;-1.210;2022-09-09T02:25:14;11.40;;;3.43;;
17790;SDS011;9019;48.132;-1.210;2022-09-09T02:27:44;11.37;;;3.07;;
17790;SDS011;9019;48.132;-1.210;2022-09-09T02:30:12;11.43;;;3.20;;
17790;SDS011;9019;48.132;-1.210;2022-09-09T02:32:40;11.63;;;3.10;;
17790;SDS011;9019;48.132;-1.210;2022-09-09T02:35:12;14.50;;;3.43;;
17790;SDS011;9019;48.132;-1.210;2022-09-09T02:37:40;14.23;;;3.13;;
17790;SDS011;9019;48.132;-1.210;2022-09-09T02:40:09;11.40;;;3.37;;
17790;SDS011;9019;48.132;-1.210;2022-09-09T02:42:39;11.00;;;3.13;;
17790;SDS011;9019;48.132;-1.210;2022-09-09T02:45:07;14.90;;;3.27;;
17790;SDS011;9019;48.132;-1.210;2022-09-09T02:47:36;10.13;;;2.90;;
17790;SDS011;9019;48.132;-1.210;2022-09-09T02:50:08;7.77;;;2.50;;
17790;SDS011;9019;48.132;-1.210;2022-09-09T02:52:42;10.77;;;2.57;;
17790;SDS011;9019;48.132;-1.210;2022-09-09T02:55:18;12.93;;;2.83;;
17790;SDS011;9019;48.132;-1.210;2022-09-09T02:57:47;11.87;;;2.90;;
17790;SDS011;9019;48.132;-1.210;2022-09-09T03:00:15;11.17;;;2.80;;
17790;SDS011;9019;48.132;-1.210;2022-09-09T03:02:42;9.37;;;2.87;;
17790;SDS011;9019;48.132;-1.210;2022-09-09T03:05:10;15.10;;;3.20;;
17790;SDS011;9019;48.132;-1.210;2022-09-09T03:07:39;12.37;;;2.83;;
17790;SDS011;9019;48.132;-1.210;2022-09-09T03:10:07;10.33;;;2.83;;
17790;SDS011;9019;48.132;-1.210;2022-09-09T03:12:35;9.00;;;3.03;;
17790;SDS011;9019;48.132;-1.210;2022-09-09T03:15:04;10.17;;;2.73;;
17790;SDS011;9019;48.132;-1.210;2022-09-09T03:17:31;9.57;;;2.47;;
17790;SDS011;9019;48.132;-1.210;2022-09-09T03:19:59;7.30;;;2.47;;
17790;SDS011;9019;48.132;-1.210;2022-09-09T03:22:26;11.53;;;2.93;;
17790;SDS011;9019;48.132;-1.210;2022-09-09T03:24:55;9.73;;;2.60;;
17790;SDS011;9019;48.132;-1.210;2022-09-09T03:27:22;10.83;;;2.83;;
17790;SDS011;9019;48.132;-1.210;2022-09-09T03:29:49;9.30;;;2.70;;
17790;SDS011;9019;48.132;-1.210;2022-09-09T03:32:17;8.73;;;2.50;;
17790;SDS011;9019;48.132;-1.210;2022-09-09T03:34:44;12.53;;;2.37;;
17790;SDS011;9019;48.132;-1.210;2022-09-09T03:37:14;9.73;;;2.40;;
17790;SDS011;9019;48.132;-1.210;2022-09-09T03:39:42;9.00;;;2.53;;
17790;SDS011;9019;48.132;-1.210;2022-09-09T03:42:13;7.83;;;2.47;;
17790;SDS011;9019;48.132;-1.210;2022-09-09T03:44:43;11.27;;;2.70;;
17790;SDS011;9019;48.132;-1.210;2022-09-09T03:47:12;8.80;;;2.70;;
17790;SDS011;9019;48.132;-1.210;2022-09-09T03:49:39;12.17;;;2.30;;
17790;SDS011;9019;48.132;-1.210;2022-09-09T03:52:08;10.57;;;2.60;;
17790;SDS011;9019;48.132;-1.210;2022-09-09T03:54:35;14.50;;;3.43;;
17790;SDS011;9019;48.132;-1.210;2022-09-09T03:57:02;7.10;;;2.20;;
17790;SDS011;9019;48.132;-1.210;2022-09-09T03:59:31;8.80;;;2.43;;
17790;SDS011;9019;48.132;-1.210;2022-09-09T04:01:59;9.53;;;2.20;;
17790;SDS011;9019;48.132;-1.210;2022-09-09T04:04:27;9.03;;;2.53;;
17790;SDS011;9019;48.132;-1.210;2022-09-09T04:06:54;14.93;;;2.60;;
17790;SDS011;9019;48.132;-1.210;2022-09-09T04:09:21;10.67;;;2.50;;
17790;SDS011;9019;48.132;-1.210;2022-09-09T04:11:48;12.00;;;2.47;;
17790;SDS011;9019;48.132;-1.210;2022-09-09T04:14:16;9.70;;;2.63;;
17790;SDS011;9019;48.132;-1.210;2022-09-09T04:16:44;11.73;;;2.70;;
17790;SDS011;9019;48.132;-1.210;2022-09-09T04:19:11;12.90;;;2.60;;
17790;SDS011;9019;48.132;-1.210;2022-09-09T04:21:39;7.30;;;2.60;;
17790;SDS011;9019;48.132;-1.210;2022-09-09T04:24:07;11.70;;;3.00;;
17790;SDS011;9019;48.132;-1.210;2022-09-09T04:26:34;7.70;;;2.47;;
17790;SDS011;9019;48.132;-1.210;2022-09-09T04:29:02;9.77;;;2.93;;
17790;SDS011;9019;48.132;-1.210;2022-09-09T04:31:30;11.03;;;2.87;;
17790;SDS011;9019;48.132;-1.210;2022-09-09T04:33:59;11.57;;;2.70;;
17790;SDS011;9019;48.132;-1.210;2022-09-09T04:36:30;11.17;;;3.00;;
17790;SDS011;9019;48.132;-1.210;2022-09-09T04:38:58;12.50;;;2.93;;
17790;SDS011;9019;48.132;-1.210;2022-09-09T04:41:26;14.10;;;2.73;;
17790;SDS011;9019;48.132;-1.210;2022-09-09T04:43:53;12.93;;;3.13;;
17790;SDS011;9019;48.132;-1.210;2022-09-09T04:46:21;8.87;;;2.63;;
17790;SDS011;9019;48.132;-1.210;2022-09-09T04:48:48;12.97;;;3.00;;
17790;SDS011;9019;48.132;-1.210;2022-09-09T04:51:18;12.43;;;2.67;;
17790;SDS011;9019;48.132;-1.210;2022-09-09T04:53:45;13.13;;;2.87;;
17790;SDS011;9019;48.132;-1.210;2022-09-09T04:56:14;9.60;;;2.60;;
17790;SDS011;9019;48.132;-1.210;2022-09-09T04:58:42;10.47;;;3.23;;
17790;SDS011;9019;48.132;-1.210;2022-09-09T05:01:10;10.43;;;3.37;;
17790;SDS011;9019;48.132;-1.210;2022-09-09T05:03:38;10.70;;;2.73;;
17790;SDS011;9019;48.132;-1.210;2022-09-09T05:06:06;14.77;;;3.20;;
17790;SDS011;9019;48.132;-1.210;2022-09-09T05:08:36;14.03;;;2.93;;
17790;SDS011;9019;48.132;-1.210;2022-09-09T05:11:03;12.40;;;2.97;;
17790;SDS011;9019;48.132;-1.210;2022-09-09T05:13:31;8.60;;;3.00;;
17790;SDS011;9019;48.132;-1.210;2022-09-09T05:15:58;13.27;;;3.10;;
17790;SDS011;9019;48.132;-1.210;2022-09-09T05:18:25;14.70;;;2.87;;
17790;SDS011;9019;48.132;-1.210;2022-09-09T05:20:52;13.63;;;3.77;;
17790;SDS011;9019;48.132;-1.210;2022-09-09T05:23:25;12.60;;;3.13;;
17790;SDS011;9019;48.132;-1.210;2022-09-09T05:25:57;13.30;;;3.10;;
17790;SDS011;9019;48.132;-1.210;2022-09-09T05:28:24;12.17;;;3.53;;
17790;SDS011;9019;48.132;-1.210;2022-09-09T05:30:55;13.83;;;3.73;;
17790;SDS011;9019;48.132;-1.210;2022-09-09T05:33:23;15.80;;;4.33;;
17790;SDS011;9019;48.132;-1.210;2022-09-09T05:35:55;16.77;;;3.93;;
17790;SDS011;9019;48.132;-1.210;2022-09-09T05:38:22;15.07;;;3.40;;
17790;SDS011;9019;48.132;-1.210;2022-09-09T05:40:50;14.17;;;3.17;;
17790;SDS011;9019;48.132;-1.210;2022-09-09T05:43:19;12.13;;;3.37;;
17790;SDS011;9019;48.132;-1.210;2022-09-09T05:45:47;13.07;;;3.20;;
17790;SDS011;9019;48.132;-1.210;2022-09-09T05:48:14;10.67;;;3.13;;
17790;SDS011;9019;48.132;-1.210;2022-09-09T05:50:42;10.90;;;2.83;;
17790;SDS011;9019;48.132;-1.210;2022-09-09T05:53:10;11.00;;;2.80;;
17790;SDS011;9019;48.132;-1.210;2022-09-09T05:55:37;13.27;;;3.50;;
17790;SDS011;9019;48.132;-1.210;2022-09-09T05:58:04;9.60;;;2.97;;
17790;SDS011;9019;48.132;-1.210;2022-09-09T06:00:33;12.03;;;2.90;;
17790;SDS011;9019;48.132;-1.210;2022-09-09T06:03:00;12.40;;;3.33;;
17790;SDS011;9019;48.132;-1.210;2022-09-09T06:05:28;9.53;;;2.90;;
17790;SDS011;9019;48.132;-1.210;2022-09-09T06:07:55;12.00;;;2.73;;
17790;SDS011;9019;48.132;-1.210;2022-09-09T06:10:22;12.33;;;3.13;;
17790;SDS011;9019;48.132;-1.210;2022-09-09T06:12:52;13.03;;;2.97;;
17790;SDS011;9019;48.132;-1.210;2022-09-09T06:15:19;15.27;;;3.03;;
17790;SDS011;9019;48.132;-1.210;2022-09-09T06:17:48;12.43;;;3.00;;
17790;SDS011;9019;48.132;-1.210;2022-09-09T06:20:20;16.13;;;3.43;;
17790;SDS011;9019;48.132;-1.210;2022-09-09T06:22:48;11.43;;;3.10;;
17790;SDS011;9019;48.132;-1.210;2022-09-09T06:25:15;16.13;;;3.13;;
17790;SDS011;9019;48.132;-1.210;2022-09-09T06:27:43;10.97;;;2.80;;
17790;SDS011;9019;48.132;-1.210;2022-09-09T06:30:15;17.30;;;3.00;;
17790;SDS011;9019;48.132;-1.210;2022-09-09T06:32:43;12.23;;;2.87;;
17790;SDS011;9019;48.132;-1.210;2022-09-09T06:35:12;12.47;;;2.90;;
17790;SDS011;9019;48.132;-1.210;2022-09-09T06:37:39;10.77;;;3.30;;
17790;SDS011;9019;48.132;-1.210;2022-09-09T06:40:06;9.77;;;2.70;;
17790;SDS011;9019;48.132;-1.210;2022-09-09T06:42:34;11.27;;;3.00;;
17790;SDS011;9019;48.132;-1.210;2022-09-09T06:45:01;10.43;;;2.60;;
17790;SDS011;9019;48.132;-1.210;2022-09-09T06:47:28;6.93;;;2.35;;
17790;SDS011;9019;48.132;-1.210;2022-09-09T06:49:56;11.40;;;2.70;;
17790;SDS011;9019;48.132;-1.210;2022-09-09T06:52:24;8.30;;;2.47;;
17790;SDS011;9019;48.132;-1.210;2022-09-09T06:54:52;7.70;;;2.63;;
17790;SDS011;9019;48.132;-1.210;2022-09-09T06:57:19;8.45;;;2.13;;
17790;SDS011;9019;48.132;-1.210;2022-09-09T06:59:47;8.57;;;2.50;;
17790;SDS011;9019;48.132;-1.210;2022-09-09T07:02:14;8.57;;;2.22;;
17790;SDS011;9019;48.132;-1.210;2022-09-09T07:04:41;9.40;;;2.22;;
17790;SDS011;9019;48.132;-1.210;2022-09-09T07:07:09;6.47;;;2.05;;
17790;SDS011;9019;48.132;-1.210;2022-09-09T07:09:40;12.00;;;2.30;;
17790;SDS011;9019;48.132;-1.210;2022-09-09T07:12:07;9.60;;;2.38;;
17790;SDS011;9019;48.132;-1.210;2022-09-09T07:14:35;10.35;;;2.03;;
17790;SDS011;9019;48.132;-1.210;2022-09-09T07:17:02;9.73;;;2.60;;
17790;SDS011;9019;48.132;-1.210;2022-09-09T07:19:29;9.13;;;2.75;;
17790;SDS011;9019;48.132;-1.210;2022-09-09T07:21:56;12.13;;;3.17;;
17790;SDS011;9019;48.132;-1.210;2022-09-09T07:24:24;8.95;;;2.38;;
17790;SDS011;9019;48.132;-1.210;2022-09-09T07:26:56;8.93;;;2.67;;
17790;SDS011;9019;48.132;-1.210;2022-09-09T07:29:24;8.07;;;2.20;;
17790;SDS011;9019;48.132;-1.210;2022-09-09T07:31:51;12.63;;;2.67;;
17790;SDS011;9019;48.132;-1.210;2022-09-09T07:34:19;6.93;;;2.30;;
17790;SDS011;9019;48.132;-1.210;2022-09-09T07:36:46;7.68;;;2.72;;
17790;SDS011;9019;48.132;-1.210;2022-09-09T07:39:14;6.60;;;2.20;;
17790;SDS011;9019;48.132;-1.210;2022-09-09T07:41:43;8.57;;;2.47;;
17790;SDS011;9019;48.132;-1.210;2022-09-09T07:44:12;6.57;;;2.67;;
17790;SDS011;9019;48.132;-1.210;2022-09-09T07:46:40;8.80;;;2.65;;
17790;SDS011;9019;48.132;-1.210;2022-09-09T07:49:08;8.43;;;2.25;;
17790;SDS011;9019;48.132;-1.210;2022-09-09T07:51:36;9.55;;;2.60;;
17790;SDS011;9019;48.132;-1.210;2022-09-09T07:54:04;10.13;;;2.55;;
17790;SDS011;9019;48.132;-1.210;2022-09-09T07:56:32;8.85;;;2.50;;
17790;SDS011;9019;48.132;-1.210;2022-09-09T07:59:00;7.75;;;2.63;;
17790;SDS011;9019;48.132;-1.210;2022-09-09T08:01:31;8.57;;;2.70;;
17790;SDS011;9019;48.132;-1.210;2022-09-09T08:04:00;9.05;;;2.58;;
17790;SDS011;9019;48.132;-1.210;2022-09-09T08:06:27;8.85;;;2.15;;
17790;SDS011;9019;48.132;-1.210;2022-09-09T08:08:55;9.45;;;2.45;;
17790;SDS011;9019;48.132;-1.210;2022-09-09T08:11:23;10.52;;;2.10;;
17790;SDS011;9019;48.132;-1.210;2022-09-09T08:13:51;11.32;;;2.28;;
17790;SDS011;9019;48.132;-1.210;2022-09-09T08:16:19;10.48;;;2.30;;
17790;SDS011;9019;48.132;-1.210;2022-09-09T08:18:48;7.45;;;2.25;;
17790;SDS011;9019;48.132;-1.210;2022-09-09T08:21:16;9.48;;;1.98;;
17790;SDS011;9019;48.132;-1.210;2022-09-09T08:23:45;6.22;;;1.75;;
17790;SDS011;9019;48.132;-1.210;2022-09-09T08:26:13;7.63;;;2.03;;
17790;SDS011;9019;48.132;-1.210;2022-09-09T08:28:41;12.00;;;2.10;;
17790;SDS011;9019;48.132;-1.210;2022-09-09T08:31:09;7.57;;;2.00;;
17790;SDS011;9019;48.132;-1.210;2022-09-09T08:33:37;9.27;;;2.22;;
17790;SDS011;9019;48.132;-1.210;2022-09-09T08:36:08;8.00;;;1.95;;
17790;SDS011;9019;48.132;-1.210;2022-09-09T08:38:36;7.78;;;1.85;;
17790;SDS011;9019;48.132;-1.210;2022-09-09T08:41:06;7.88;;;1.75;;
17790;SDS011;9019;48.132;-1.210;2022-09-09T08:43:34;5.00;;;1.65;;
17790;SDS011;9019;48.132;-1.210;2022-09-09T08:46:02;6.95;;;1.83;;
17790;SDS011;9019;48.132;-1.210;2022-09-09T08:48:41;7.80;;;1.88;;
17790;SDS011;9019;48.132;-1.210;2022-09-09T08:51:12;8.38;;;1.90;;
17790;SDS011;9019;48.132;-1.210;2022-09-09T08:53:40;4.85;;;1.75;;
17790;SDS011;9019;48.132;-1.210;2022-09-09T08:56:10;8.15;;;1.85;;
17790;SDS011;9019;48.132;-1.210;2022-09-09T08:58:41;6.50;;;1.67;;
17790;SDS011;9019;48.132;-1.210;2022-09-09T09:01:16;7.15;;;1.73;;
17790;SDS011;9019;48.132;-1.210;2022-09-09T09:03:52;7.53;;;1.67;;
17790;SDS011;9019;48.132;-1.210;2022-09-09T09:06:26;6.63;;;2.10;;
17790;SDS011;9019;48.132;-1.210;2022-09-09T09:09:02;6.95;;;1.80;;
17790;SDS011;9019;48.132;-1.210;2022-09-09T09:11:34;7.43;;;1.92;;
17790;SDS011;9019;48.132;-1.210;2022-09-09T09:14:02;7.70;;;1.80;;
17790;SDS011;9019;48.132;-1.210;2022-09-09T09:16:30;6.03;;;1.58;;
17790;SDS011;9019;48.132;-1.210;2022-09-09T09:19:00;6.60;;;1.50;;
17790;SDS011;9019;48.132;-1.210;2022-09-09T09:21:32;5.65;;;1.67;;
17790;SDS011;9019;48.132;-1.210;2022-09-09T09:24:01;9.77;;;2.03;;
17790;SDS011;9019;48.132;-1.210;2022-09-09T09:26:33;6.05;;;1.98;;
17790;SDS011;9019;48.132;-1.210;2022-09-09T09:29:00;6.22;;;1.60;;
17790;SDS011;9019;48.132;-1.210;2022-09-09T09:31:28;7.55;;;1.80;;
17790;SDS011;9019;48.132;-1.210;2022-09-09T09:33:56;7.88;;;1.75;;
17790;SDS011;9019;48.132;-1.210;2022-09-09T09:36:24;5.90;;;1.70;;
17790;SDS011;9019;48.132;-1.210;2022-09-09T09:38:55;7.35;;;2.03;;
17790;SDS011;9019;48.132;-1.210;2022-09-09T09:41:29;6.20;;;1.48;;
17790;SDS011;9019;48.132;-1.210;2022-09-09T09:43:56;7.97;;;1.60;;
17790;SDS011;9019;48.132;-1.210;2022-09-09T09:46:24;6.40;;;1.60;;
17790;SDS011;9019;48.132;-1.210;2022-09-09T09:48:58;8.50;;;1.80;;
17790;SDS011;9019;48.132;-1.210;2022-09-09T09:51:25;4.72;;;1.33;;
17790;SDS011;9019;48.132;-1.210;2022-09-09T09:53:54;6.63;;;1.45;;
17790;SDS011;9019;48.132;-1.210;2022-09-09T09:56:30;5.55;;;1.55;;
17790;SDS011;9019;48.132;-1.210;2022-09-09T09:58:58;5.40;;;1.30;;
17790;SDS011;9019;48.132;-1.210;2022-09-09T10:01:26;6.35;;;1.48;;
17790;SDS011;9019;48.132;-1.210;2022-09-09T10:03:55;5.97;;;1.58;;
17790;SDS011;9019;48.132;-1.210;2022-09-09T10:06:33;6.97;;;1.30;;
17790;SDS011;9019;48.132;-1.210;2022-09-09T10:09:03;9.35;;;1.70;;
17790;SDS011;9019;48.132;-1.210;2022-09-09T10:11:37;5.78;;;1.25;;
17790;SDS011;9019;48.132;-1.210;2022-09-09T10:14:11;5.20;;;1.40;;
17790;SDS011;9019;48.132;-1.210;2022-09-09T10:16:45;5.05;;;1.30;;
17790;SDS011;9019;48.132;-1.210;2022-09-09T10:19:15;5.20;;;1.45;;
17790;SDS011;9019;48.132;-1.210;2022-09-09T10:24:33;6.43;;;1.58;;
17790;SDS011;9019;48.132;-1.210;2022-09-09T10:27:06;3.63;;;1.40;;
17790;SDS011;9019;48.132;-1.210;2022-09-09T10:29:44;6.65;;;1.40;;
17790;SDS011;9019;48.132;-1.210;2022-09-09T10:32:22;5.40;;;1.40;;
17790;SDS011;9019;48.132;-1.210;2022-09-09T10:34:55;5.75;;;1.17;;
17790;SDS011;9019;48.132;-1.210;2022-09-09T10:37:27;6.05;;;1.42;;
17790;SDS011;9019;48.132;-1.210;2022-09-09T10:40:02;8.38;;;1.40;;
17790;SDS011;9019;48.132;-1.210;2022-09-09T10:42:32;5.05;;;1.27;;
17790;SDS011;9019;48.132;-1.210;2022-09-09T10:45:02;5.95;;;1.45;;
17790;SDS011;9019;48.132;-1.210;2022-09-09T10:47:44;5.05;;;1.45;;
17790;SDS011;9019;48.132;-1.210;2022-09-09T10:50:25;4.90;;;1.50;;
17790;SDS011;9019;48.132;-1.210;2022-09-09T10:52:57;4.68;;;1.58;;
17790;SDS011;9019;48.132;-1.210;2022-09-09T10:55:31;5.15;;;1.60;;
17790;SDS011;9019;48.132;-1.210;2022-09-09T10:58:02;4.43;;;1.30;;
17790;SDS011;9019;48.132;-1.210;2022-09-09T11:00:31;5.88;;;1.38;;
17790;SDS011;9019;48.132;-1.210;2022-09-09T11:03:03;6.63;;;1.30;;
17790;SDS011;9019;48.132;-1.210;2022-09-09T11:05:34;5.35;;;1.20;;
17790;SDS011;9019;48.132;-1.210;2022-09-09T11:08:05;4.88;;;1.30;;
17790;SDS011;9019;48.132;-1.210;2022-09-09T11:10:39;3.80;;;1.17;;
17790;SDS011;9019;48.132;-1.210;2022-09-09T11:13:10;6.47;;;1.63;;
17790;SDS011;9019;48.132;-1.210;2022-09-09T11:15:39;4.68;;;1.35;;
17790;SDS011;9019;48.132;-1.210;2022-09-09T11:18:08;4.93;;;1.40;;
17790;SDS011;9019;48.132;-1.210;2022-09-09T11:20:38;7.57;;;1.65;;
17790;SDS011;9019;48.132;-1.210;2022-09-09T11:23:08;8.40;;;1.52;;
17790;SDS011;9019;48.132;-1.210;2022-09-09T11:25:36;8.70;;;1.77;;
17790;SDS011;9019;48.132;-1.210;2022-09-09T11:28:15;5.60;;;1.70;;
17790;SDS011;9019;48.132;-1.210;2022-09-09T11:30:49;6.05;;;1.60;;
17790;SDS011;9019;48.132;-1.210;2022-09-09T11:33:26;5.65;;;1.55;;
17790;SDS011;9019;48.132;-1.210;2022-09-09T11:36:05;6.80;;;1.70;;
17790;SDS011;9019;48.132;-1.210;2022-09-09T11:38:40;8.10;;;1.80;;
17790;SDS011;9019;48.132;-1.210;2022-09-09T11:41:10;4.53;;;1.63;;
17790;SDS011;9019;48.132;-1.210;2022-09-09T11:43:40;6.82;;;1.90;;
17790;SDS011;9019;48.132;-1.210;2022-09-09T11:46:08;4.70;;;1.63;;
17790;SDS011;9019;48.132;-1.210;2022-09-09T11:48:37;6.32;;;1.17;;
17790;SDS011;9019;48.132;-1.210;2022-09-09T11:51:05;5.43;;;1.40;;
17790;SDS011;9019;48.132;-1.210;2022-09-09T11:53:34;5.55;;;1.30;;
17790;SDS011;9019;48.132;-1.210;2022-09-09T11:56:05;4.95;;;1.10;;
17790;SDS011;9019;48.132;-1.210;2022-09-09T12:01:29;5.28;;;1.50;;
17790;SDS011;9019;48.132;-1.210;2022-09-09T12:06:42;2.42;;;0.90;;
17790;SDS011;9019;48.132;-1.210;2022-09-09T12:09:15;4.15;;;1.25;;
17790;SDS011;9019;48.132;-1.210;2022-09-09T12:11:44;3.72;;;1.10;;
17790;SDS011;9019;48.132;-1.210;2022-09-09T12:14:19;4.32;;;0.93;;
17790;SDS011;9019;48.132;-1.210;2022-09-09T12:16:47;3.35;;;1.23;;
17790;SDS011;9019;48.132;-1.210;2022-09-09T12:19:16;3.33;;;1.02;;
17790;SDS011;9019;48.132;-1.210;2022-09-09T12:21:47;5.25;;;1.25;;
17790;SDS011;9019;48.132;-1.210;2022-09-09T12:24:18;2.17;;;1.00;;
17790;SDS011;9019;48.132;-1.210;2022-09-09T12:26:47;5.35;;;1.05;;
17790;SDS011;9019;48.132;-1.210;2022-09-09T12:29:21;3.20;;;1.10;;
17790;SDS011;9019;48.132;-1.210;2022-09-09T12:31:53;4.82;;;1.00;;
17790;SDS011;9019;48.132;-1.210;2022-09-09T12:34:26;4.30;;;1.30;;
17790;SDS011;9019;48.132;-1.210;2022-09-09T12:36:57;5.05;;;1.20;;
17790;SDS011;9019;48.132;-1.210;2022-09-09T12:39:27;4.90;;;1.25;;
17790;SDS011;9019;48.132;-1.210;2022-09-09T12:41:56;2.63;;;1.10;;
17790;SDS011;9019;48.132;-1.210;2022-09-09T12:44:24;6.88;;;1.27;;
17790;SDS011;9019;48.132;-1.210;2022-09-09T12:46:54;3.72;;;1.35;;
17790;SDS011;9019;48.132;-1.210;2022-09-09T12:49:26;6.70;;;1.40;;
17790;SDS011;9019;48.132;-1.210;2022-09-09T12:51:56;3.33;;;1.02;;
17790;SDS011;9019;48.132;-1.210;2022-09-09T12:54:23;7.82;;;1.27;;
17790;SDS011;9019;48.132;-1.210;2022-09-09T12:56:51;4.00;;;1.05;;
17790;SDS011;9019;48.132;-1.210;2022-09-09T12:59:21;6.15;;;1.15;;
17790;SDS011;9019;48.132;-1.210;2022-09-09T13:01:56;3.55;;;0.90;;
17790;SDS011;9019;48.132;-1.210;2022-09-09T13:04:24;3.60;;;0.93;;
17790;SDS011;9019;48.132;-1.210;2022-09-09T13:06:51;2.60;;;0.90;;
17790;SDS011;9019;48.132;-1.210;2022-09-09T13:09:18;1.75;;;1.02;;
17790;SDS011;9019;48.132;-1.210;2022-09-09T13:11:46;2.83;;;0.80;;
17790;SDS011;9019;48.132;-1.210;2022-09-09T13:14:16;2.17;;;0.52;;
17790;SDS011;9019;48.132;-1.210;2022-09-09T13:16:53;1.35;;;0.57;;
17790;SDS011;9019;48.132;-1.210;2022-09-09T13:19:22;2.55;;;1.02;;
17790;SDS011;9019;48.132;-1.210;2022-09-09T13:21:53;3.25;;;1.00;;
17790;SDS011;9019;48.132;-1.210;2022-09-09T13:24:24;3.28;;;1.02;;
17790;SDS011;9019;48.132;-1.210;2022-09-09T13:26:54;3.28;;;1.00;;
17790;SDS011;9019;48.132;-1.210;2022-09-09T13:29:22;2.20;;;1.05;;
17790;SDS011;9019;48.132;-1.210;2022-09-09T13:31:49;3.88;;;1.17;;
17790;SDS011;9019;48.132;-1.210;2022-09-09T13:34:29;5.20;;;1.30;;
17790;SDS011;9019;48.132;-1.210;2022-09-09T13:36:58;6.60;;;1.50;;
17790;SDS011;9019;48.132;-1.210;2022-09-09T13:39:27;4.78;;;1.48;;
17790;SDS011;9019;48.132;-1.210;2022-09-09T13:41:55;3.55;;;1.48;;
17790;SDS011;9019;48.132;-1.210;2022-09-09T13:44:23;5.35;;;1.40;;
17790;SDS011;9019;48.132;-1.210;2022-09-09T13:47:01;3.28;;;1.00;;
17790;SDS011;9019;48.132;-1.210;2022-09-09T13:49:30;6.03;;;1.35;;
17790;SDS011;9019;48.132;-1.210;2022-09-09T13:52:05;3.65;;;1.30;;
17790;SDS011;9019;48.132;-1.210;2022-09-09T13:54:36;4.90;;;1.20;;
17790;SDS011;9019;48.132;-1.210;2022-09-09T13:57:03;5.90;;;1.30;;
17790;SDS011;9019;48.132;-1.210;2022-09-09T13:59:30;7.30;;;1.35;;
17790;SDS011;9019;48.132;-1.210;2022-09-09T14:01:58;7.05;;;1.55;;
17790;SDS011;9019;48.132;-1.210;2022-09-09T14:04:26;4.43;;;1.17;;
17790;SDS011;9019;48.132;-1.210;2022-09-09T14:06:55;2.72;;;1.00;;
17790;SDS011;9019;48.132;-1.210;2022-09-09T14:09:23;5.97;;;1.20;;
17790;SDS011;9019;48.132;-1.210;2022-09-09T14:11:50;3.05;;;1.42;;
17790;SDS011;9019;48.132;-1.210;2022-09-09T14:14:17;5.15;;;1.60;;
17790;SDS011;9019;48.132;-1.210;2022-09-09T14:16:45;6.68;;;1.40;;
17790;SDS011;9019;48.132;-1.210;2022-09-09T14:19:12;5.63;;;1.80;;
17790;SDS011;9019;48.132;-1.210;2022-09-09T14:21:39;5.63;;;1.45;;
17790;SDS011;9019;48.132;-1.210;2022-09-09T14:24:08;6.78;;;2.03;;
17790;SDS011;9019;48.132;-1.210;2022-09-09T14:26:35;7.35;;;1.73;;
17790;SDS011;9019;48.132;-1.210;2022-09-09T14:29:02;4.18;;;1.50;;
17790;SDS011;9019;48.132;-1.210;2022-09-09T14:31:29;3.17;;;1.17;;
17790;SDS011;9019;48.132;-1.210;2022-09-09T14:33:57;3.53;;;1.20;;
17790;SDS011;9019;48.132;-1.210;2022-09-09T14:36:25;4.20;;;1.42;;
17790;SDS011;9019;48.132;-1.210;2022-09-09T14:38:52;3.40;;;0.98;;
17790;SDS011;9019;48.132;-1.210;2022-09-09T14:41:21;2.75;;;0.98;;
17790;SDS011;9019;48.132;-1.210;2022-09-09T14:43:48;3.63;;;0.95;;
17790;SDS011;9019;48.132;-1.210;2022-09-09T14:46:17;2.45;;;0.90;;
17790;SDS011;9019;48.132;-1.210;2022-09-09T14:48:44;2.45;;;0.95;;
17790;SDS011;9019;48.132;-1.210;2022-09-09T14:51:14;3.10;;;0.60;;
17790;SDS011;9019;48.132;-1.210;2022-09-09T14:53:41;1.95;;;0.50;;
17790;SDS011;9019;48.132;-1.210;2022-09-09T14:56:10;1.75;;;0.60;;
17790;SDS011;9019;48.132;-1.210;2022-09-09T14:58:39;1.75;;;0.90;;
17790;SDS011;9019;48.132;-1.210;2022-09-09T15:01:06;1.55;;;0.63;;
17790;SDS011;9019;48.132;-1.210;2022-09-09T15:03:35;1.60;;;0.55;;
17790;SDS011;9019;48.132;-1.210;2022-09-09T15:06:05;2.13;;;0.70;;
17790;SDS011;9019;48.132;-1.210;2022-09-09T15:08:33;4.28;;;0.90;;